createdAt,value
2018-02-16T00:01:04.834Z,25.90
2018-02-16T00:03:30.985Z,24.02
2018-02-16T00:05:58.048Z,25.42
2018-02-16T00:08:24.439Z,24.67
2018-02-16T00:10:50.587Z,24.92
2018-02-16T00:13:16.813Z,23.60
2018-02-16T00:15:43.967Z,23.10
2018-02-16T00:18:10.107Z,23.50
2018-02-16T00:20:36.259Z,21.98
2018-02-16T00:23:02.407Z,21.45
2018-02-16T00:25:28.559Z,19.00
2018-02-16T00:27:55.467Z,23.23
2018-02-16T00:30:21.897Z,19.05
2018-02-16T00:32:48.085Z,20.80
2018-02-16T00:35:14.603Z,20.55
2018-02-16T00:37:40.990Z,20.30
2018-02-16T00:40:07.143Z,19.37
2018-02-16T00:42:33.647Z,18.80
2018-02-16T00:44:59.828Z,17.35
2018-02-16T00:47:26.003Z,18.48
2018-02-16T00:49:52.175Z,18.83
2018-02-16T00:52:18.378Z,17.83
2018-02-16T00:54:44.539Z,16.55
2018-02-16T00:57:10.692Z,14.60
2018-02-16T00:59:36.843Z,15.15
2018-02-16T01:02:03.275Z,14.38
2018-02-16T01:04:29.432Z,14.20
2018-02-16T01:06:55.936Z,14.20
2018-02-16T01:09:22.118Z,14.20
2018-02-16T01:11:48.281Z,13.98
2018-02-16T01:14:14.440Z,13.77
2018-02-16T01:16:40.955Z,14.73
2018-02-16T01:19:07.124Z,14.45
2018-02-16T01:21:34.036Z,12.70
2018-02-16T01:24:00.193Z,12.85
2018-02-16T01:26:26.327Z,13.20
2018-02-16T01:28:52.482Z,13.40
2018-02-16T01:31:18.649Z,13.55
2018-02-16T01:33:44.823Z,12.95
2018-02-16T01:36:10.980Z,12.40
2018-02-16T01:38:38.083Z,13.85
2018-02-16T01:41:04.275Z,12.60
2018-02-16T01:43:31.160Z,13.18
2018-02-16T01:45:57.607Z,11.70
2018-02-16T01:48:23.791Z,12.93
2018-02-16T01:50:50.695Z,12.77
2018-02-16T01:53:16.861Z,12.88
2018-02-16T01:55:43.016Z,10.85
2018-02-16T01:58:09.171Z,10.57
2018-02-16T02:00:35.355Z,11.20
2018-02-16T02:03:01.827Z,11.73
2018-02-16T02:05:28.715Z,11.93
2018-02-16T02:07:55.795Z,9.93
2018-02-16T02:10:22.103Z,9.80
2018-02-16T02:12:48.247Z,12.20
2018-02-16T02:15:14.396Z,11.90
2018-02-16T02:17:40.607Z,11.40
2018-02-16T02:20:06.751Z,12.95
2018-02-16T02:22:40.198Z,11.52
2018-02-16T02:25:07.392Z,11.00
2018-02-16T02:27:33.535Z,10.80
2018-02-16T02:29:59.700Z,10.65
2018-02-16T02:32:26.603Z,11.43
2018-02-16T02:34:52.785Z,11.70
2018-02-16T02:37:18.941Z,10.68
2018-02-16T02:39:45.160Z,12.98
2018-02-16T02:42:12.089Z,11.70
2018-02-16T02:44:38.223Z,10.75
2018-02-16T02:47:04.519Z,10.90
2018-02-16T02:49:30.671Z,11.10
2018-02-16T02:51:56.835Z,10.57
2018-02-16T02:54:22.971Z,11.82
2018-02-16T02:56:49.888Z,11.10
2018-02-16T02:59:16.046Z,11.80
2018-02-16T03:01:42.976Z,11.90
2018-02-16T03:04:09.135Z,13.18
2018-02-16T03:06:36.211Z,12.15
2018-02-16T06:34:09.261Z,13.80
2018-02-16T06:36:36.486Z,12.85
2018-02-16T06:39:02.635Z,12.85
2018-02-16T06:41:28.787Z,12.35
2018-02-16T06:43:56.025Z,13.93
2018-02-16T06:46:22.160Z,16.42
2018-02-16T06:48:48.323Z,12.77
2018-02-16T06:51:14.732Z,12.82
2018-02-16T06:53:40.939Z,13.60
2018-02-16T06:56:07.083Z,12.90
2018-02-16T06:58:33.252Z,13.80
2018-02-16T07:00:59.536Z,13.60
2018-02-16T07:03:25.709Z,12.32
2018-02-16T07:05:51.877Z,12.70
2018-02-16T07:08:18.065Z,14.23
2018-02-16T07:10:44.442Z,13.23
2018-02-16T07:13:11.364Z,10.70
2018-02-16T07:15:37.828Z,13.02
2018-02-16T07:18:04.768Z,13.52
2018-02-16T07:20:31.687Z,12.63
2018-02-16T07:22:57.838Z,11.95
2018-02-16T07:25:25.151Z,12.15
2018-02-16T07:27:51.299Z,11.50
2018-02-16T07:30:17.468Z,11.95
2018-02-16T07:32:43.677Z,13.35
2018-02-16T07:35:09.904Z,12.07
2018-02-16T07:37:36.059Z,13.38
2018-02-16T07:40:03.745Z,12.80
2018-02-16T07:42:30.667Z,11.02
2018-02-16T07:44:56.858Z,10.50
2018-02-16T07:47:23.026Z,12.80
2018-02-16T07:49:49.171Z,11.93
2018-02-16T07:52:15.323Z,11.55
2018-02-16T07:54:42.427Z,10.40
2018-02-16T07:57:08.635Z,10.30
2018-02-16T07:59:34.855Z,11.20
2018-02-16T08:02:01.237Z,10.18
2018-02-16T08:04:27.428Z,10.60
2018-02-16T08:06:53.595Z,11.38
2018-02-16T08:09:20.552Z,12.05
2018-02-16T08:11:47.471Z,11.07
2018-02-16T08:14:13.943Z,11.68
2018-02-16T08:16:40.304Z,10.45
2018-02-16T08:19:06.454Z,12.48
2018-02-16T08:21:32.691Z,10.03
2018-02-16T08:23:59.609Z,10.50
2018-02-16T08:26:26.641Z,10.75
2018-02-16T08:28:52.831Z,10.43
2018-02-16T08:31:19.120Z,9.93
2018-02-16T08:33:46.596Z,10.60
2018-02-16T08:36:13.687Z,10.77
2018-02-16T08:38:43.988Z,10.17
2018-02-16T08:41:11.228Z,9.90
2018-02-16T08:43:38.340Z,9.90
2018-02-16T08:46:04.587Z,10.30
2018-02-16T08:48:31.102Z,10.37
2018-02-16T08:50:58.073Z,9.93
2018-02-16T08:53:24.254Z,9.73
2018-02-16T08:55:50.459Z,9.40
2018-02-16T08:58:16.640Z,9.37
2018-02-16T09:00:43.560Z,9.40
2018-02-16T09:03:09.735Z,9.13
2018-02-16T09:05:35.906Z,9.00
2018-02-16T09:08:02.179Z,10.03
2018-02-16T09:10:28.343Z,10.73
2018-02-16T09:12:55.255Z,9.30
2018-02-16T09:15:21.433Z,10.00
2018-02-16T09:17:47.757Z,8.67
2018-02-16T09:20:14.648Z,9.70
2018-02-16T09:22:40.806Z,9.47
2018-02-16T09:25:07.231Z,11.30
2018-02-16T09:27:33.397Z,9.50
2018-02-16T09:29:59.539Z,9.23
2018-02-16T09:32:26.455Z,9.13
2018-02-16T09:34:54.073Z,8.87
2018-02-16T09:37:21.903Z,12.33
2018-02-16T09:39:49.267Z,10.90
2018-02-16T09:42:15.411Z,9.20
2018-02-16T09:44:43.035Z,8.60
2018-02-16T09:47:09.188Z,8.70
2018-02-16T09:49:35.330Z,9.10
2018-02-16T09:52:01.512Z,9.67
2018-02-16T09:54:28.433Z,9.93
2018-02-16T09:56:54.568Z,9.50
2018-02-16T09:59:21.673Z,9.80
2018-02-16T10:01:47.853Z,9.27
2018-02-16T10:04:14.017Z,10.60
2018-02-16T10:06:40.220Z,9.57
2018-02-16T10:09:07.122Z,8.97
2018-02-16T10:11:33.279Z,7.90
2018-02-16T10:13:59.439Z,8.53
2018-02-16T10:16:26.400Z,8.97
2018-02-16T10:18:52.920Z,9.27
2018-02-16T10:21:19.063Z,10.57
2018-02-16T10:23:45.224Z,9.20
2018-02-16T10:26:11.395Z,11.20
2018-02-16T10:28:37.554Z,11.00
2018-02-16T10:31:03.731Z,8.70
2018-02-16T10:33:29.931Z,9.47
2018-02-16T10:35:56.059Z,9.27
2018-02-16T10:38:22.951Z,7.63
2018-02-16T10:40:49.109Z,8.03
2018-02-16T10:43:15.251Z,7.70
2018-02-16T10:45:41.437Z,8.77
2018-02-16T10:48:07.607Z,8.37
2018-02-16T10:50:33.767Z,8.73
2018-02-16T10:52:59.971Z,8.00
2018-02-16T10:55:26.234Z,7.80
2018-02-16T10:57:53.153Z,7.73
2018-02-16T11:00:25.519Z,7.60
2018-02-16T11:02:57.847Z,6.50
2018-02-16T11:05:31.291Z,8.03
2018-02-16T11:07:57.443Z,6.50
2018-02-16T11:10:23.583Z,6.73
2018-02-16T11:12:51.279Z,8.27
2018-02-16T11:15:18.190Z,7.87
2018-02-16T11:17:44.381Z,7.87
2018-02-16T11:20:11.283Z,6.13
2018-02-16T11:22:37.448Z,6.93
2018-02-16T11:25:04.350Z,7.63
2018-02-16T11:27:30.515Z,6.40
2018-02-16T11:29:57.427Z,6.60
2018-02-16T11:32:23.597Z,6.33
2018-02-16T11:34:50.711Z,7.53
2018-02-16T11:37:16.862Z,7.33
2018-02-16T11:39:43.770Z,6.13
2018-02-16T11:42:10.709Z,7.30
2018-02-16T11:44:36.899Z,6.50
2018-02-16T11:47:03.053Z,7.00
2018-02-16T11:49:29.451Z,7.50
2018-02-16T11:51:55.634Z,7.30
2018-02-16T11:54:21.838Z,6.50
2018-02-16T11:56:48.263Z,7.40
2018-02-16T11:59:14.420Z,5.80
2018-02-16T12:01:40.567Z,6.80
2018-02-16T12:04:06.751Z,7.50
2018-02-16T12:06:32.903Z,7.27
2018-02-16T12:08:59.047Z,6.87
2018-02-16T12:11:25.227Z,6.30
2018-02-16T12:13:59.059Z,6.60
2018-02-16T12:16:25.703Z,7.60
2018-02-16T12:18:52.284Z,6.43
2018-02-16T12:21:18.467Z,7.07
2018-02-16T12:23:44.659Z,7.50
2018-02-16T12:26:11.612Z,6.33
2018-02-16T12:28:37.819Z,6.10
2018-02-16T12:31:04.127Z,5.80
2018-02-16T12:33:30.292Z,7.03
2018-02-16T12:35:58.186Z,6.40
2018-02-16T12:38:25.839Z,6.70
2018-02-16T12:40:51.987Z,7.10
2018-02-16T12:43:18.886Z,6.57
2018-02-16T12:45:45.240Z,6.10
2018-02-16T12:48:11.382Z,7.80
2018-02-16T12:50:37.523Z,5.80
2018-02-16T12:53:10.654Z,7.20
2018-02-16T12:55:37.544Z,5.67
2018-02-16T12:58:03.692Z,5.63
2018-02-16T13:00:30.631Z,4.67
2018-02-16T13:02:56.827Z,5.57
2018-02-16T13:05:23.723Z,5.73
2018-02-16T13:07:50.855Z,6.30
2018-02-16T13:10:17.008Z,5.97
2018-02-16T13:12:44.672Z,4.50
2018-02-16T13:15:10.859Z,6.07
2018-02-16T13:17:37.756Z,6.67
2018-02-16T13:20:03.988Z,5.10
2018-02-16T13:22:30.383Z,6.73
2018-02-16T13:24:56.508Z,6.30
2018-02-16T13:27:23.387Z,5.80
2018-02-16T13:29:49.803Z,5.33
2018-02-16T13:32:16.692Z,4.97
2018-02-16T13:34:42.849Z,5.87
2018-02-16T13:37:09.355Z,4.30
2018-02-16T13:39:35.549Z,5.67
2018-02-16T13:42:02.440Z,4.80
2018-02-16T13:44:28.879Z,5.50
2018-02-16T13:46:55.040Z,5.47
2018-02-16T13:49:21.195Z,5.50
2018-02-16T13:51:47.356Z,5.17
2018-02-16T13:54:13.522Z,4.67
2018-02-16T13:56:39.682Z,5.40
2018-02-16T13:59:06.708Z,5.53
2018-02-16T14:01:32.848Z,4.17
2018-02-16T14:03:59.040Z,4.57
2018-02-16T14:06:25.923Z,4.60
2018-02-16T14:08:52.080Z,5.87
2018-02-16T14:11:18.981Z,7.93
2018-02-16T14:13:45.143Z,7.00
2018-02-16T14:16:11.319Z,6.17
2018-02-16T14:18:38.219Z,4.83
2018-02-16T14:21:04.557Z,5.40
2018-02-16T14:23:30.724Z,4.70
2018-02-16T14:25:56.876Z,5.20
2018-02-16T14:28:23.763Z,5.80
2018-02-16T14:30:50.101Z,5.90
2018-02-16T14:33:16.239Z,3.90
2018-02-16T14:35:42.454Z,4.33
2018-02-16T14:38:08.619Z,5.00
2018-02-16T14:40:34.810Z,5.27
2018-02-16T14:43:00.955Z,3.83
2018-02-16T14:45:27.139Z,4.50
2018-02-16T14:47:53.299Z,3.70
2018-02-16T14:50:19.454Z,4.97
2018-02-16T14:52:45.611Z,3.83
2018-02-16T14:55:11.755Z,4.00
2018-02-16T14:57:37.907Z,4.63
2018-02-16T15:00:04.092Z,4.10
2018-02-16T15:02:30.248Z,4.50
2018-02-16T15:04:56.400Z,3.80
2018-02-16T15:07:22.556Z,4.57
2018-02-16T15:09:49.450Z,4.80
2018-02-16T15:12:15.642Z,5.03
2018-02-16T15:14:42.543Z,4.20
2018-02-16T15:17:08.711Z,4.30
2018-02-16T15:19:35.594Z,4.57
2018-02-16T15:22:01.976Z,4.30
2018-02-16T15:24:28.127Z,5.30
2018-02-16T15:26:55.024Z,4.70
2018-02-16T15:29:21.183Z,5.03
2018-02-16T15:31:47.324Z,4.00
2018-02-16T15:34:13.487Z,4.80
2018-02-16T15:36:40.702Z,3.47
2018-02-16T15:39:06.860Z,4.67
2018-02-16T15:41:34.512Z,5.20
2018-02-16T15:44:00.673Z,3.73
2018-02-16T15:46:27.567Z,3.90
2018-02-16T15:48:53.799Z,3.73
2018-02-16T15:51:19.974Z,10.93
2018-02-16T15:53:46.153Z,4.60
2018-02-16T15:56:12.347Z,4.93
2018-02-16T15:58:39.264Z,5.27
2018-02-16T16:01:05.443Z,4.47
2018-02-16T16:03:32.243Z,3.80
2018-02-16T16:05:58.419Z,5.00
2018-02-16T16:08:25.325Z,3.63
2018-02-16T16:10:51.755Z,4.33
2018-02-16T16:13:17.930Z,4.40
2018-02-16T16:15:44.100Z,4.13
2018-02-16T16:18:11.291Z,4.67
2018-02-16T16:20:37.442Z,4.47
2018-02-16T16:23:03.607Z,4.50
2018-02-16T16:25:29.819Z,4.50
2018-02-16T16:27:56.331Z,3.97
2018-02-16T16:30:22.488Z,4.80
2018-02-16T16:32:49.611Z,4.47
2018-02-16T16:35:15.784Z,3.27
2018-02-16T16:37:41.924Z,4.40
2018-02-16T16:40:08.081Z,4.70
2018-02-16T16:42:34.984Z,4.40
2018-02-16T16:45:01.224Z,5.00
2018-02-16T16:47:28.152Z,3.33
2018-02-16T16:49:54.683Z,3.83
2018-02-16T16:52:20.843Z,3.97
2018-02-16T16:54:46.987Z,5.10
2018-02-16T16:57:13.175Z,5.23
2018-02-16T16:59:39.315Z,6.03
2018-02-16T17:02:05.492Z,5.10
2018-02-16T17:04:32.406Z,4.53
2018-02-16T17:06:58.548Z,5.00
2018-02-16T17:09:24.736Z,4.50
2018-02-16T17:11:50.912Z,4.13
2018-02-16T17:14:17.079Z,5.97
2018-02-16T17:16:43.235Z,4.47
2018-02-16T17:19:10.315Z,5.90
2018-02-16T17:21:36.509Z,5.10
2018-02-16T17:24:03.399Z,3.60
2018-02-16T17:26:29.572Z,4.00
2018-02-16T17:28:57.203Z,5.87
2018-02-16T17:31:23.347Z,4.67
2018-02-16T17:33:49.532Z,4.60
2018-02-16T17:36:16.421Z,4.03
2018-02-16T17:38:42.619Z,4.30
2018-02-16T17:41:08.792Z,4.35
2018-02-16T17:43:34.935Z,4.30
2018-02-16T17:46:01.406Z,5.50
2018-02-16T17:48:28.515Z,4.73
2018-02-16T17:50:54.687Z,5.90
2018-02-16T17:53:27.930Z,3.93
2018-02-16T17:55:54.888Z,4.00
2018-02-16T17:58:21.043Z,3.60
2018-02-16T18:00:47.451Z,4.40
2018-02-16T18:03:13.607Z,4.90
2018-02-16T18:05:39.762Z,5.50
2018-02-16T18:08:05.935Z,5.40
2018-02-16T18:10:32.828Z,4.47
2018-02-16T18:12:58.973Z,3.83
2018-02-16T18:15:25.291Z,4.37
2018-02-16T18:17:51.442Z,5.50
2018-02-16T18:20:17.596Z,7.20
2018-02-16T18:22:43.739Z,7.37
2018-02-16T18:25:10.632Z,8.50
2018-02-16T18:27:36.967Z,7.50
2018-02-16T18:30:03.209Z,4.97
2018-02-16T18:32:30.081Z,5.53
2018-02-16T18:34:56.235Z,4.97
2018-02-16T18:37:23.131Z,5.63
2018-02-16T18:39:49.272Z,6.10
2018-02-16T18:42:15.425Z,4.70
2018-02-16T18:44:41.604Z,5.00
2018-02-16T18:47:07.753Z,5.03
2018-02-16T18:49:33.915Z,4.23
2018-02-16T18:52:00.892Z,4.70
2018-02-16T18:54:27.791Z,4.43
2018-02-16T18:56:54.351Z,6.37
2018-02-16T18:59:20.527Z,4.17
2018-02-16T19:01:47.748Z,4.43
2018-02-16T19:04:14.667Z,4.20
2018-02-16T19:06:40.976Z,7.10
2018-02-16T19:09:08.379Z,4.37
2018-02-16T19:11:34.523Z,5.67
2018-02-16T19:14:00.664Z,4.60
2018-02-16T19:16:27.207Z,4.63
2018-02-16T19:18:53.363Z,4.53
2018-02-16T19:21:19.517Z,5.30
2018-02-16T19:23:45.743Z,5.30
2018-02-16T19:26:12.628Z,4.57
2018-02-16T19:28:39.579Z,3.87
2018-02-16T19:31:06.156Z,5.50
2018-02-16T19:33:32.371Z,4.70
2018-02-16T19:35:58.522Z,5.60
2018-02-16T19:38:24.823Z,4.73
2018-02-16T19:40:50.963Z,6.90
2018-02-16T19:43:18.051Z,5.10
2018-02-16T19:45:44.796Z,4.70
2018-02-16T19:48:10.996Z,5.70
2018-02-16T19:50:37.279Z,5.90
2018-02-16T19:53:04.184Z,4.37
2018-02-16T19:55:30.347Z,4.30
2018-02-16T19:57:56.543Z,5.17
2018-02-16T20:00:22.696Z,5.07
2018-02-16T20:02:48.856Z,7.13
2018-02-16T20:05:14.993Z,6.40
2018-02-16T20:07:41.216Z,6.80
2018-02-16T20:10:07.364Z,5.27
2018-02-16T20:12:34.380Z,5.93
2018-02-16T20:15:00.802Z,4.43
2018-02-16T20:17:26.939Z,5.30
2018-02-16T20:19:53.881Z,4.57
2018-02-16T20:22:20.331Z,6.40
2018-02-16T20:24:46.479Z,4.83
2018-02-16T20:27:12.631Z,5.30
2018-02-16T20:29:38.808Z,4.20
2018-02-16T20:32:05.018Z,5.33
2018-02-16T20:34:31.919Z,4.85
2018-02-16T20:36:58.097Z,5.27
2018-02-16T20:39:24.988Z,4.57
2018-02-16T20:41:51.151Z,4.40
2018-02-16T20:44:17.564Z,5.57
2018-02-16T20:46:43.727Z,4.70
2018-02-16T20:49:09.904Z,6.67
2018-02-16T20:51:36.467Z,5.70
2018-02-16T20:54:02.634Z,6.45
2018-02-16T20:56:28.804Z,4.90
2018-02-16T20:58:55.712Z,5.50
2018-02-16T21:01:21.868Z,7.83
2018-02-16T21:03:48.958Z,5.30
2018-02-16T21:06:15.231Z,5.57
2018-02-16T21:08:42.171Z,4.17
2018-02-16T21:11:08.353Z,5.80
2018-02-16T21:13:35.439Z,5.53
2018-02-16T21:16:01.599Z,7.95
2018-02-16T21:18:27.751Z,7.07
2018-02-16T21:20:55.416Z,5.05
2018-02-16T21:23:22.339Z,5.90
2018-02-16T21:25:48.621Z,5.95
2018-02-16T21:28:14.867Z,5.70
2018-02-16T21:30:41.065Z,4.93
2018-02-16T21:33:10.272Z,5.97
2018-02-16T21:35:38.759Z,4.78
2018-02-16T21:38:05.208Z,5.27
2018-02-16T21:40:31.371Z,5.20
2018-02-16T21:42:57.552Z,5.80
2018-02-16T21:45:25.203Z,4.72
2018-02-16T21:47:51.737Z,4.90
2018-02-16T21:50:17.919Z,7.10
2018-02-16T21:52:44.434Z,5.07
2018-02-16T21:55:10.872Z,6.63
2018-02-16T21:57:37.039Z,5.07
2018-02-16T22:00:03.997Z,4.80
2018-02-16T22:02:30.164Z,5.45
2018-02-16T22:04:56.315Z,6.30
2018-02-16T22:07:22.472Z,4.78
2018-02-16T22:09:48.933Z,5.18
2018-02-16T22:12:15.978Z,5.25
2018-02-16T22:14:42.212Z,8.48
2018-02-16T22:17:09.106Z,6.77
2018-02-16T22:19:35.263Z,5.87
2018-02-16T22:22:01.427Z,7.10
2018-02-16T22:24:27.590Z,7.05
2018-02-16T22:26:53.746Z,24.10
2018-02-16T22:29:19.948Z,5.97
2018-02-16T22:31:46.165Z,5.70
2018-02-16T22:34:13.102Z,5.65
2018-02-16T22:36:39.245Z,6.43
2018-02-16T22:39:06.146Z,6.95
2018-02-16T22:41:32.322Z,6.80
2018-02-16T22:43:58.484Z,5.97
2018-02-16T22:46:24.662Z,5.40
2018-02-16T22:48:50.853Z,5.78
2018-02-16T22:51:17.015Z,5.55
2018-02-16T22:53:43.188Z,6.05
2018-02-16T22:56:09.684Z,6.97
2018-02-16T22:58:35.826Z,4.93
2018-02-16T23:01:01.991Z,5.35
2018-02-16T23:03:28.175Z,6.87
2018-02-16T23:05:54.332Z,6.30
2018-02-16T23:08:20.519Z,6.13
2018-02-16T23:10:47.425Z,6.85
2018-02-16T23:13:13.604Z,6.00
2018-02-16T23:15:39.751Z,5.95
2018-02-16T23:18:05.946Z,6.32
2018-02-16T23:20:32.892Z,6.53
2018-02-16T23:22:59.351Z,6.65
2018-02-16T23:25:25.539Z,5.65
2018-02-16T23:27:51.690Z,6.83
2018-02-16T23:30:19.319Z,5.50
2018-02-16T23:32:45.510Z,7.40
2018-02-16T23:35:12.412Z,5.97
2018-02-16T23:37:38.551Z,5.90
2018-02-16T23:40:04.691Z,5.93
2018-02-16T23:42:30.812Z,6.82
2018-02-16T23:44:57.749Z,6.03
2018-02-16T23:47:24.664Z,6.10
2018-02-16T23:49:50.823Z,7.37
2018-02-16T23:52:17.120Z,6.70
2018-02-16T23:54:43.312Z,5.65
2018-02-16T23:57:10.220Z,5.22
2018-02-16T23:59:36.752Z,6.65
